createdAt,value
2023-04-18T00:00:04.477Z,0.2
2023-04-18T00:01:03.646Z,0.1
2023-04-18T00:02:03.791Z,0.0
2023-04-18T00:03:04.676Z,0.6
2023-04-18T00:04:03.579Z,0.2
2023-04-18T00:05:03.837Z,0.2
2023-04-18T00:06:04.059Z,0.0
2023-04-18T00:07:03.549Z,0.1
2023-04-18T00:08:03.381Z,0.4
2023-04-18T00:09:03.312Z,0.4
2023-04-18T00:10:04.142Z,0.0
2023-04-18T00:11:03.716Z,0.3
2023-04-18T00:12:03.592Z,0.2
2023-04-18T00:13:05.243Z,0.3
2023-04-18T00:14:03.194Z,0.0
2023-04-18T00:15:04.213Z,0.3
2023-04-18T00:16:03.821Z,0.0
2023-04-18T00:17:04.589Z,0.3
2023-04-18T00:18:03.421Z,0.0
2023-04-18T00:19:03.161Z,0.0
2023-04-18T00:20:03.452Z,0.3
2023-04-18T00:21:03.749Z,0.2
2023-04-18T00:22:03.410Z,0.0
2023-04-18T00:23:03.393Z,0.2
2023-04-18T00:24:03.183Z,0.4
2023-04-18T00:25:03.995Z,0.3
2023-04-18T00:26:03.622Z,0.3
2023-04-18T00:27:03.427Z,0.3
2023-04-18T00:28:03.312Z,0.0
2023-04-18T00:29:03.044Z,0.0
2023-04-18T00:30:04.302Z,0.1
2023-04-18T00:31:03.638Z,0.1
2023-04-18T00:32:03.391Z,0.1
2023-04-18T00:33:03.217Z,0.0
2023-04-18T00:34:03.109Z,0.0
2023-04-18T00:35:04.102Z,0.3
2023-04-18T00:36:03.860Z,0.4
2023-04-18T00:37:03.560Z,0.1
2023-04-18T00:38:03.250Z,0.1
2023-04-18T00:39:03.084Z,0.0
2023-04-18T00:40:04.000Z,0.3
2023-04-18T00:41:03.525Z,0.2
2023-04-18T00:42:03.400Z,0.1
2023-04-18T00:43:03.176Z,0.1
2023-04-18T00:44:03.095Z,0.3
2023-04-18T00:45:04.100Z,0.2
2023-04-18T00:46:03.596Z,0.0
2023-04-18T00:47:03.369Z,0.3
2023-04-18T00:48:03.370Z,0.0
2023-04-18T00:49:03.064Z,0.1
2023-04-18T00:50:04.299Z,0.3
2023-04-18T00:51:03.556Z,0.2
2023-04-18T00:52:03.245Z,0.0
2023-04-18T00:53:03.082Z,0.1
2023-04-18T00:54:05.401Z,0.1
2023-04-18T00:55:05.412Z,0.4
2023-04-18T00:56:03.909Z,0.2
2023-04-18T00:57:03.322Z,0.1
2023-04-18T00:58:03.223Z,0.8
2023-04-18T00:59:04.276Z,0.3
2023-04-18T01:00:05.108Z,0.2
2023-04-18T01:01:03.453Z,0.2
2023-04-18T01:02:03.378Z,0.0
2023-04-18T01:03:03.313Z,0.0
2023-04-18T01:04:03.871Z,0.2
2023-04-18T01:05:06.290Z,0.1
2023-04-18T01:06:03.640Z,0.4
2023-04-18T01:07:03.818Z,0.0
2023-04-18T01:08:03.061Z,0.0
2023-04-18T01:09:03.774Z,0.0
2023-04-18T01:10:03.960Z,0.0
2023-04-18T01:11:03.423Z,0.1
2023-04-18T01:12:03.292Z,0.4
2023-04-18T01:13:13.125Z,0.3
2023-04-18T01:14:05.158Z,0.0
2023-04-18T01:15:04.283Z,0.0
2023-04-18T01:16:03.669Z,0.0
2023-04-18T01:17:03.224Z,0.0
2023-04-18T01:18:03.221Z,0.2
2023-04-18T01:19:04.017Z,0.5
2023-04-18T01:20:04.089Z,0.2
2023-04-18T01:21:03.520Z,0.1
2023-04-18T01:22:03.159Z,0.1
2023-04-18T01:23:03.862Z,0.1
2023-04-18T01:24:06.850Z,0.5
2023-04-18T01:25:07.336Z,0.1
2023-04-18T01:26:03.457Z,0.0
2023-04-18T01:27:03.172Z,0.2
2023-04-18T01:28:04.109Z,0.0
2023-04-18T01:29:03.605Z,0.0
2023-04-18T01:30:03.610Z,0.3
2023-04-18T01:31:03.315Z,0.0
2023-04-18T01:32:03.197Z,0.2
2023-04-18T01:33:04.389Z,0.0
2023-04-18T01:34:04.326Z,0.3
2023-04-18T01:35:03.778Z,0.2
2023-04-18T01:36:03.733Z,0.0
2023-04-18T01:37:03.109Z,0.2
2023-04-18T01:38:03.789Z,0.0
2023-04-18T01:39:03.584Z,0.0
2023-04-18T01:40:03.566Z,0.0
2023-04-18T01:41:03.215Z,0.1
2023-04-18T01:42:02.989Z,0.0
2023-04-18T01:43:03.703Z,0.1
2023-04-18T01:44:03.801Z,0.0
2023-04-18T01:45:04.741Z,0.0
2023-04-18T01:46:03.114Z,0.0
2023-04-18T01:47:02.979Z,0.3
2023-04-18T01:48:03.702Z,0.3
2023-04-18T01:49:04.248Z,0.1
2023-04-18T01:50:03.404Z,0.1
2023-04-18T01:51:03.178Z,0.2
2023-04-18T01:52:03.764Z,0.0
2023-04-18T01:53:03.656Z,0.0
2023-04-18T01:54:03.622Z,0.0
2023-04-18T01:55:03.444Z,0.0
2023-04-18T01:56:03.107Z,0.0
2023-04-18T01:57:03.715Z,0.0
2023-04-18T01:58:03.570Z,0.3
2023-04-18T01:59:03.421Z,0.0
2023-04-18T02:00:03.769Z,0.3
2023-04-18T02:01:03.030Z,0.2
2023-04-18T02:02:03.873Z,0.0
2023-04-18T02:03:03.536Z,0.2
2023-04-18T02:04:03.377Z,0.0
2023-04-18T02:05:03.322Z,0.3
2023-04-18T02:06:03.438Z,0.1
2023-04-18T02:07:03.670Z,0.3
2023-04-18T02:08:03.543Z,0.0
2023-04-18T02:09:03.277Z,0.1
2023-04-18T02:10:04.050Z,0.0
2023-04-18T02:11:04.098Z,0.0
2023-04-18T02:12:03.681Z,0.0
2023-04-18T02:13:03.455Z,0.0
2023-04-18T02:14:03.260Z,0.0
2023-04-18T02:15:03.375Z,0.0
2023-04-18T02:16:04.012Z,0.0
2023-04-18T02:17:03.595Z,0.0
2023-04-18T02:18:03.428Z,0.0
2023-04-18T02:19:03.170Z,0.0
2023-04-18T02:20:03.434Z,0.2
2023-04-18T02:21:03.899Z,0.6
2023-04-18T02:22:03.502Z,0.1
2023-04-18T02:23:03.382Z,0.1
2023-04-18T02:24:03.233Z,0.0
2023-04-18T02:25:03.160Z,0.1
2023-04-18T02:26:03.719Z,0.2
2023-04-18T02:27:03.436Z,0.0
2023-04-18T02:28:03.385Z,0.0
2023-04-18T02:29:03.062Z,0.2
2023-04-18T02:30:04.185Z,0.2
2023-04-18T02:31:03.828Z,0.0
2023-04-18T02:32:03.610Z,0.0
2023-04-18T02:33:03.303Z,0.3
2023-04-18T02:34:03.070Z,0.2
2023-04-18T02:35:04.078Z,0.1
2023-04-18T02:36:03.989Z,0.2
2023-04-18T02:37:03.373Z,0.6
2023-04-18T02:38:03.231Z,0.0
2023-04-18T02:39:03.048Z,0.0
2023-04-18T02:40:04.207Z,0.0
2023-04-18T02:41:03.745Z,0.5
2023-04-18T02:42:03.359Z,0.1
2023-04-18T02:43:03.176Z,0.1
2023-04-18T02:44:03.003Z,0.1
2023-04-18T02:45:04.084Z,0.0
2023-04-18T02:46:03.681Z,0.2
2023-04-18T02:47:03.318Z,0.1
2023-04-18T02:48:03.211Z,0.1
2023-04-18T02:49:02.929Z,0.1
2023-04-18T02:50:03.949Z,0.1
2023-04-18T02:51:03.985Z,0.0
2023-04-18T02:52:03.404Z,0.2
2023-04-18T02:53:03.132Z,0.1
2023-04-18T02:54:03.054Z,0.0
2023-04-18T02:55:03.904Z,0.2
2023-04-18T02:56:03.722Z,0.2
2023-04-18T02:57:03.287Z,0.3
2023-04-18T02:58:03.099Z,0.1
2023-04-18T02:59:03.800Z,0.0
2023-04-18T03:00:03.920Z,0.1
2023-04-18T03:01:03.509Z,0.1
2023-04-18T03:02:03.386Z,0.0
2023-04-18T03:03:03.280Z,0.0
2023-04-18T03:04:03.874Z,0.0
2023-04-18T03:05:03.923Z,0.0
2023-04-18T03:06:03.429Z,0.1
2023-04-18T03:07:03.230Z,0.0
2023-04-18T03:08:03.051Z,0.0
2023-04-18T03:09:03.802Z,0.1
2023-04-18T03:10:03.970Z,0.1
2023-04-18T03:11:03.505Z,0.0
2023-04-18T03:12:03.384Z,0.2
2023-04-18T03:13:03.264Z,0.3
2023-04-18T03:14:03.695Z,0.0
2023-04-18T03:15:03.881Z,0.1
2023-04-18T03:16:03.817Z,0.0
2023-04-18T03:17:03.212Z,0.0
2023-04-18T03:18:03.508Z,0.0
2023-04-18T03:19:03.687Z,0.0
2023-04-18T03:20:03.826Z,0.0
2023-04-18T03:21:03.509Z,0.0
2023-04-18T03:22:03.127Z,0.0
2023-04-18T03:23:03.017Z,0.0
2023-04-18T03:24:03.837Z,0.3
2023-04-18T03:25:03.746Z,0.0
2023-04-18T03:26:04.455Z,0.0
2023-04-18T03:27:03.097Z,0.2
2023-04-18T03:28:04.000Z,0.0
2023-04-18T03:29:03.618Z,0.7
2023-04-18T03:30:03.859Z,0.0
2023-04-18T03:31:03.384Z,0.1
2023-04-18T03:32:03.268Z,0.0
2023-04-18T03:33:03.796Z,0.1
2023-04-18T03:34:03.565Z,0.1
2023-04-18T03:35:03.513Z,0.0
2023-04-18T03:36:03.171Z,0.0
2023-04-18T03:37:02.980Z,0.0
2023-04-18T03:38:03.684Z,0.2
2023-04-18T03:39:03.711Z,0.2
2023-04-18T03:40:03.623Z,0.4
2023-04-18T03:41:03.210Z,0.0
2023-04-18T03:42:02.996Z,0.2
2023-04-18T03:43:03.730Z,0.0
2023-04-18T03:44:03.692Z,0.3
2023-04-18T03:45:03.490Z,0.0
2023-04-18T03:46:03.326Z,0.0
2023-04-18T03:47:02.982Z,0.0
2023-04-18T03:48:03.723Z,0.0
2023-04-18T03:49:03.483Z,0.0
2023-04-18T03:50:03.563Z,0.0
2023-04-18T03:51:04.643Z,0.1
2023-04-18T03:52:02.982Z,0.0
2023-04-18T03:53:03.566Z,0.0
2023-04-18T03:54:03.448Z,0.0
2023-04-18T03:55:03.491Z,0.0
2023-04-18T03:56:03.111Z,0.2
2023-04-18T03:57:03.779Z,0.3
2023-04-18T03:58:03.618Z,0.0
2023-04-18T03:59:03.458Z,0.0
2023-04-18T04:00:03.553Z,0.2
2023-04-18T04:01:03.121Z,0.0
2023-04-18T04:02:03.897Z,0.0
2023-04-18T04:03:03.751Z,0.0
2023-04-18T04:04:03.480Z,0.1
2023-04-18T04:05:03.439Z,0.1
2023-04-18T04:06:03.295Z,0.1
2023-04-18T04:07:03.813Z,0.0
2023-04-18T04:08:03.632Z,0.0
2023-04-18T04:09:03.392Z,0.3
2023-04-18T04:10:03.420Z,0.0
2023-04-18T04:11:03.108Z,0.1
2023-04-18T04:12:03.871Z,0.1
2023-04-18T04:13:03.505Z,0.1
2023-04-18T04:14:03.337Z,0.0
2023-04-18T04:15:03.469Z,0.1
2023-04-18T04:16:03.909Z,0.0
2023-04-18T04:17:03.635Z,0.0
2023-04-18T04:18:04.560Z,0.0
2023-04-18T04:19:03.307Z,0.1
2023-04-18T04:20:03.239Z,0.0
2023-04-18T04:21:03.162Z,0.0
2023-04-18T04:22:03.582Z,0.0
2023-04-18T04:23:03.395Z,0.3
2023-04-18T04:24:03.372Z,0.1
2023-04-18T04:25:03.604Z,0.3
2023-04-18T04:26:03.898Z,0.0
2023-04-18T04:27:03.676Z,0.3
2023-04-18T04:28:03.585Z,0.0
2023-04-18T04:29:03.245Z,0.0
2023-04-18T04:30:03.388Z,0.0
2023-04-18T04:31:03.812Z,0.0
2023-04-18T04:32:03.897Z,0.0
2023-04-18T04:33:03.345Z,0.1
2023-04-18T04:34:03.120Z,0.1
2023-04-18T04:35:03.063Z,0.3
2023-04-18T04:36:06.642Z,0.0
2023-04-18T04:37:03.546Z,0.0
2023-04-18T04:38:03.336Z,0.2
2023-04-18T04:39:03.212Z,0.0
2023-04-18T04:40:03.254Z,0.0
2023-04-18T04:41:04.028Z,0.0
2023-04-18T04:42:03.538Z,0.0
2023-04-18T04:43:03.257Z,0.1
2023-04-18T04:44:03.092Z,0.0
2023-04-18T04:45:04.204Z,0.0
2023-04-18T04:46:03.712Z,0.0
2023-04-18T04:47:03.464Z,0.0
2023-04-18T04:48:03.642Z,0.0
2023-04-18T04:49:03.028Z,0.0
2023-04-18T04:50:04.058Z,0.0
2023-04-18T04:51:03.554Z,0.0
2023-04-18T04:52:03.370Z,0.2
2023-04-18T04:53:03.812Z,0.0
2023-04-18T04:54:03.213Z,0.0
2023-04-18T04:55:03.916Z,0.0
2023-04-18T04:56:03.594Z,0.0
2023-04-18T04:57:03.332Z,0.0
2023-04-18T04:58:03.297Z,0.0
2023-04-18T04:59:03.038Z,0.0
2023-04-18T05:00:04.161Z,0.0
2023-04-18T05:01:03.473Z,0.3
2023-04-18T05:02:03.311Z,0.0
2023-04-18T05:03:03.217Z,0.3
2023-04-18T05:04:04.063Z,0.0
2023-04-18T05:05:03.858Z,0.0
2023-04-18T05:06:03.665Z,0.0
2023-04-18T05:07:03.284Z,0.0
2023-04-18T05:08:03.420Z,0.0
2023-04-18T05:09:03.749Z,0.0
2023-04-18T05:10:03.760Z,0.0
2023-04-18T05:11:03.392Z,0.0
2023-04-18T05:12:03.524Z,0.0
2023-04-18T05:13:03.372Z,0.0
2023-04-18T05:14:03.702Z,0.0
2023-04-18T05:15:03.855Z,0.0
2023-04-18T05:16:03.689Z,0.0
2023-04-18T05:17:03.318Z,0.1
2023-04-18T05:18:03.227Z,0.1
2023-04-18T05:19:04.088Z,0.0
2023-04-18T05:20:04.022Z,0.0
2023-04-18T05:21:03.473Z,0.2
2023-04-18T05:22:03.098Z,0.0
2023-04-18T05:23:03.877Z,0.0
2023-04-18T05:24:03.713Z,0.2
2023-04-18T05:25:03.821Z,0.1
2023-04-18T05:26:04.221Z,0.2
2023-04-18T05:27:03.186Z,0.0
2023-04-18T05:28:03.717Z,0.3
2023-04-18T05:29:03.670Z,0.0
2023-04-18T05:30:03.697Z,0.1
2023-04-18T05:31:03.289Z,0.0
2023-04-18T05:32:03.097Z,0.0
2023-04-18T05:33:03.777Z,0.1
2023-04-18T05:34:03.568Z,0.0
2023-04-18T05:35:04.096Z,0.0
2023-04-18T05:36:03.430Z,0.0
2023-04-18T05:37:03.005Z,0.0
2023-04-18T05:38:03.693Z,0.0
2023-04-18T05:39:03.438Z,0.0
2023-04-18T05:40:03.828Z,0.0
2023-04-18T05:41:03.173Z,0.1
2023-04-18T05:42:03.033Z,0.0
2023-04-18T05:43:03.638Z,0.0
2023-04-18T05:44:05.743Z,0.1
2023-04-18T05:45:03.504Z,0.0
2023-04-18T05:46:03.255Z,0.0
2023-04-18T05:47:04.332Z,0.0
2023-04-18T05:48:03.776Z,0.0
2023-04-18T05:49:03.387Z,0.0
2023-04-18T05:50:03.540Z,0.0
2023-04-18T05:51:03.256Z,0.0
2023-04-18T05:52:04.008Z,0.2
2023-04-18T05:53:03.560Z,0.0
2023-04-18T05:54:03.381Z,0.0
2023-04-18T05:55:03.396Z,0.0
2023-04-18T05:56:03.147Z,0.1
2023-04-18T05:57:04.785Z,0.0
2023-04-18T05:58:03.468Z,0.0
2023-04-18T05:59:03.310Z,0.0
2023-04-18T06:00:03.580Z,0.0
2023-04-18T06:01:04.220Z,0.0
2023-04-18T06:02:03.750Z,0.0
2023-04-18T06:03:03.655Z,0.0
2023-04-18T06:04:03.534Z,0.0
2023-04-18T06:05:03.378Z,0.0
2023-04-18T06:06:03.937Z,0.0
2023-04-18T06:07:03.520Z,0.0
2023-04-18T06:08:03.328Z,0.3
2023-04-18T06:09:03.117Z,0.0
2023-04-18T06:10:03.279Z,0.3
2023-04-18T06:11:03.792Z,0.4
2023-04-18T06:12:03.633Z,0.0
2023-04-18T06:13:03.345Z,0.1
2023-04-18T06:14:03.203Z,0.2
2023-04-18T06:15:03.301Z,0.0
2023-04-18T06:16:03.749Z,0.0
2023-04-18T06:17:05.160Z,0.1
2023-04-18T06:18:03.364Z,0.0
2023-04-18T06:19:03.273Z,0.0
2023-04-18T06:20:04.031Z,0.0
2023-04-18T06:21:03.707Z,0.1
2023-04-18T06:22:03.447Z,0.0
2023-04-18T06:23:03.281Z,0.0
2023-04-18T06:24:03.158Z,0.0
2023-04-18T06:25:04.039Z,0.0
2023-04-18T06:26:03.597Z,0.5
2023-04-18T06:27:04.193Z,0.2
2023-04-18T06:28:03.355Z,0.1
2023-04-18T06:29:02.975Z,0.1
2023-04-18T06:30:04.293Z,0.0
2023-04-18T06:31:03.542Z,0.0
2023-04-18T06:32:03.754Z,0.0
2023-04-18T06:33:03.244Z,0.0
2023-04-18T06:34:02.962Z,0.0
2023-04-18T06:35:03.812Z,0.0
2023-04-18T06:36:04.246Z,0.1
2023-04-18T06:37:03.271Z,0.3
2023-04-18T06:38:03.275Z,0.1
2023-04-18T06:39:03.808Z,0.3
2023-04-18T06:40:03.867Z,0.0
2023-04-18T06:41:03.555Z,0.0
2023-04-18T06:42:03.258Z,0.3
2023-04-18T06:43:03.037Z,0.0
2023-04-18T06:44:04.640Z,0.0
2023-04-18T06:45:03.751Z,0.0
2023-04-18T06:46:04.075Z,0.3
2023-04-18T06:47:03.121Z,0.0
2023-04-18T06:48:03.249Z,0.0
2023-04-18T06:49:03.640Z,0.0
2023-04-18T06:50:04.074Z,0.1
2023-04-18T06:51:03.546Z,0.0
2023-04-18T06:52:03.158Z,0.0
2023-04-18T06:53:02.967Z,0.1
2023-04-18T06:54:03.624Z,0.1
2023-04-18T06:55:03.738Z,0.1
2023-04-18T06:56:03.501Z,0.2
2023-04-18T06:57:03.145Z,0.7
2023-04-18T06:58:03.798Z,0.0
2023-04-18T06:59:03.627Z,0.0
2023-04-18T07:00:03.906Z,0.0
2023-04-18T07:01:03.277Z,0.3
2023-04-18T07:02:03.196Z,0.0
2023-04-18T07:03:03.834Z,0.3
2023-04-18T07:04:03.725Z,0.3
2023-04-18T07:05:03.566Z,0.1
2023-04-18T07:06:04.258Z,0.2
2023-04-18T07:07:03.444Z,0.0
2023-04-18T07:08:03.864Z,0.0
2023-04-18T07:09:03.634Z,0.0
2023-04-18T07:10:03.700Z,0.5
2023-04-18T07:11:03.265Z,0.0
2023-04-18T07:12:03.101Z,0.0
2023-04-18T07:13:03.786Z,0.0
2023-04-18T07:14:03.484Z,0.1
2023-04-18T07:15:03.629Z,0.0
2023-04-18T07:16:03.238Z,0.0
2023-04-18T07:17:03.123Z,0.1
2023-04-18T07:18:03.776Z,0.0
2023-04-18T07:19:04.126Z,0.2
2023-04-18T07:20:03.722Z,0.2
2023-04-18T07:21:03.235Z,0.3
2023-04-18T07:22:03.052Z,0.1
2023-04-18T07:23:03.672Z,0.1
2023-04-18T07:24:03.605Z,0.1
2023-04-18T07:25:03.585Z,0.1
2023-04-18T07:26:03.428Z,0.2
2023-04-18T07:27:04.048Z,0.0
2023-04-18T07:28:03.840Z,0.2
2023-04-18T07:29:03.732Z,0.0
2023-04-18T07:30:03.705Z,0.0
2023-04-18T07:31:03.206Z,0.4
2023-04-18T07:32:04.479Z,0.2
2023-04-18T07:33:03.580Z,0.0
2023-04-18T07:34:03.365Z,0.0
2023-04-18T07:35:03.271Z,0.0
2023-04-18T07:36:03.145Z,0.0
2023-04-18T07:37:03.716Z,0.0
2023-04-18T07:38:03.595Z,0.4
2023-04-18T07:39:03.368Z,0.0
2023-04-18T07:40:03.530Z,0.5
2023-04-18T07:41:03.089Z,0.2
2023-04-18T07:42:03.791Z,0.2
2023-04-18T07:43:03.556Z,0.0
2023-04-18T07:44:03.439Z,0.0
2023-04-18T07:45:03.411Z,0.2
2023-04-18T07:46:03.128Z,0.2
2023-04-18T07:47:07.078Z,0.2
2023-04-18T07:48:04.251Z,0.5
2023-04-18T07:49:03.293Z,0.5
2023-04-18T07:50:03.287Z,0.1
2023-04-18T07:51:03.069Z,0.2
2023-04-18T07:52:04.048Z,0.1
2023-04-18T07:53:03.483Z,0.3
2023-04-18T07:54:03.487Z,0.2
2023-04-18T07:55:03.292Z,0.3
2023-04-18T07:56:04.085Z,0.0
2023-04-18T07:57:03.648Z,0.1
2023-04-18T07:58:03.460Z,0.1
2023-04-18T07:59:03.321Z,0.2
2023-04-18T08:00:03.336Z,0.0
2023-04-18T08:01:03.800Z,0.0
2023-04-18T08:02:03.520Z,0.0
2023-04-18T08:03:03.646Z,0.0
2023-04-18T08:04:03.324Z,0.0
2023-04-18T08:05:03.243Z,0.5
2023-04-18T08:06:03.893Z,0.0
2023-04-18T08:07:03.534Z,0.0
2023-04-18T08:08:04.546Z,0.2
2023-04-18T08:09:03.137Z,0.2
2023-04-18T08:10:04.200Z,0.2
2023-04-18T08:11:03.800Z,0.8
2023-04-18T08:12:03.657Z,0.3
2023-04-18T08:13:03.475Z,0.2
2023-04-18T08:14:03.091Z,0.2
2023-04-18T08:15:04.099Z,0.0
2023-04-18T08:16:03.762Z,0.1
2023-04-18T08:17:03.474Z,0.7
2023-04-18T08:18:03.405Z,0.2
2023-04-18T08:19:03.037Z,0.4
2023-04-18T08:20:04.026Z,0.1
2023-04-18T08:21:03.824Z,0.3
2023-04-18T08:22:07.371Z,0.2
2023-04-18T08:23:08.500Z,0.1
2023-04-18T08:24:02.926Z,0.9
2023-04-18T08:25:05.477Z,0.5
2023-04-18T08:26:03.566Z,1.2
2023-04-18T08:27:03.468Z,1.3
2023-04-18T08:28:03.278Z,1.2
2023-04-18T08:29:03.021Z,1.1
2023-04-18T08:30:09.290Z,1.5
2023-04-18T08:31:03.762Z,0.6
2023-04-18T08:32:05.832Z,0.8
2023-04-18T08:33:03.199Z,0.8
2023-04-18T08:34:04.984Z,0.5
2023-04-18T08:35:03.836Z,0.9
2023-04-18T08:36:03.640Z,0.5
2023-04-18T08:37:03.272Z,0.9
2023-04-18T08:38:03.034Z,0.2
2023-04-18T08:39:03.744Z,0.6
2023-04-18T08:40:04.211Z,0.7
2023-04-18T08:41:03.529Z,0.9
2023-04-18T08:42:04.520Z,0.3
2023-04-18T08:43:05.477Z,0.5
2023-04-18T08:44:03.811Z,0.4
2023-04-18T08:45:04.500Z,0.2
2023-04-18T08:46:03.430Z,0.3
2023-04-18T08:47:06.960Z,0.9
2023-04-18T08:48:03.071Z,0.9
2023-04-18T08:49:03.859Z,0.3
2023-04-18T08:50:03.617Z,0.4
2023-04-18T08:51:03.500Z,0.2
2023-04-18T08:52:08.081Z,0.6
2023-04-18T08:53:03.752Z,0.1
2023-04-18T08:54:04.684Z,0.3
2023-04-18T08:55:03.908Z,0.5
2023-04-18T08:56:03.271Z,1.9
2023-04-18T08:57:06.202Z,2.9
2023-04-18T08:58:03.792Z,2.2
2023-04-18T08:59:03.520Z,2.4
2023-04-18T09:00:03.578Z,1.9
2023-04-18T09:01:03.209Z,1.4
2023-04-18T09:02:03.465Z,1.4
2023-04-18T09:03:04.038Z,1.0
2023-04-18T09:04:03.696Z,0.9
2023-04-18T09:05:15.711Z,0.7
2023-04-18T09:06:10.159Z,0.3
2023-04-18T09:07:04.077Z,0.3
2023-04-18T09:08:08.576Z,0.8
2023-04-18T09:09:03.411Z,0.4
2023-04-18T09:10:03.417Z,0.7
2023-04-18T09:11:24.494Z,0.9
2023-04-18T09:12:07.567Z,0.8
2023-04-18T09:13:04.001Z,0.7
2023-04-18T09:14:03.412Z,1.1
2023-04-18T09:15:09.939Z,0.5
2023-04-18T09:16:03.201Z,0.9
2023-04-18T09:17:03.917Z,0.7
2023-04-18T09:18:08.429Z,0.4
2023-04-18T09:19:09.893Z,0.8
2023-04-18T09:20:04.319Z,0.4
2023-04-18T09:21:15.703Z,0.6
2023-04-18T09:22:03.786Z,0.9
2023-04-18T09:23:04.585Z,0.8
2023-04-18T09:24:11.497Z,1.2
2023-04-18T09:25:03.346Z,0.8
2023-04-18T09:26:02.988Z,0.6
2023-04-18T09:27:08.537Z,0.7
2023-04-18T09:28:04.402Z,0.8
2023-04-18T09:29:03.340Z,0.9
2023-04-18T09:30:03.418Z,0.5
2023-04-18T09:31:07.529Z,0.3
2023-04-18T09:32:03.860Z,2.1
2023-04-18T09:33:04.218Z,0.5
2023-04-18T09:34:03.391Z,1.0
2023-04-18T09:35:04.570Z,0.4
2023-04-18T09:36:16.272Z,0.2
2023-04-18T09:37:10.291Z,0.4
2023-04-18T09:38:03.969Z,0.9
2023-04-18T09:39:03.248Z,0.3
2023-04-18T09:40:07.898Z,0.8
2023-04-18T09:41:07.410Z,0.1
2023-04-18T09:42:03.606Z,0.4
2023-04-18T09:43:08.249Z,0.3
2023-04-18T09:44:11.674Z,0.3
2023-04-18T09:45:04.417Z,0.4
2023-04-18T09:46:03.792Z,0.3
2023-04-18T09:47:04.819Z,0.4
2023-04-18T09:48:03.362Z,0.4
2023-04-18T09:49:03.150Z,0.6
2023-04-18T09:50:04.570Z,0.3
2023-04-18T09:51:07.294Z,0.7
2023-04-18T09:52:05.532Z,0.5
2023-04-18T09:53:03.312Z,0.3
2023-04-18T09:54:03.855Z,0.4
2023-04-18T09:55:04.766Z,1.2
2023-04-18T09:56:05.386Z,0.5
2023-04-18T09:57:05.886Z,0.4
2023-04-18T09:58:03.875Z,0.2
2023-04-18T09:59:10.033Z,0.3
2023-04-18T10:00:14.432Z,0.8
2023-04-18T10:01:03.931Z,0.4
2023-04-18T10:02:04.924Z,0.5
2023-04-18T10:03:06.729Z,0.7
2023-04-18T10:04:03.695Z,0.4
2023-04-18T10:05:05.212Z,0.4
2023-04-18T10:06:03.964Z,0.7
2023-04-18T10:07:03.660Z,0.6
2023-04-18T10:08:03.398Z,0.4
2023-04-18T10:09:04.057Z,0.4
2023-04-18T10:10:03.965Z,0.4
2023-04-18T10:11:03.513Z,0.5
2023-04-18T10:12:03.348Z,0.8
2023-04-18T10:13:04.515Z,0.4
2023-04-18T10:14:06.770Z,1.0
2023-04-18T10:15:04.322Z,0.8
2023-04-18T10:16:03.597Z,0.5
2023-04-18T10:17:03.178Z,0.3
2023-04-18T10:18:08.117Z,0.8
2023-04-18T10:19:19.126Z,0.9
2023-04-18T10:20:04.141Z,0.5
2023-04-18T10:21:03.502Z,0.3
2023-04-18T10:22:03.294Z,0.3
2023-04-18T10:23:21.199Z,0.5
2023-04-18T10:24:03.763Z,0.1
2023-04-18T10:25:03.837Z,0.6
2023-04-18T10:26:06.314Z,0.9
2023-04-18T10:27:03.132Z,0.5
2023-04-18T10:28:04.526Z,0.8
2023-04-18T10:29:03.656Z,0.6
2023-04-18T10:30:03.728Z,0.6
2023-04-18T10:31:03.301Z,1.0
2023-04-18T10:32:06.020Z,0.5
2023-04-18T10:33:15.359Z,0.3
2023-04-18T10:34:06.318Z,0.8
2023-04-18T10:35:03.851Z,0.2
2023-04-18T10:36:08.028Z,0.0
2023-04-18T10:37:03.983Z,0.2
2023-04-18T10:38:03.712Z,0.1
2023-04-18T10:39:11.277Z,0.2
2023-04-18T10:40:06.157Z,0.3
2023-04-18T10:41:12.611Z,0.5
2023-04-18T10:42:03.128Z,0.9
2023-04-18T10:43:03.703Z,0.3
2023-04-18T10:44:09.779Z,0.4
2023-04-18T10:45:21.744Z,0.9
2023-04-18T10:46:14.379Z,0.7
2023-04-18T10:47:11.301Z,0.1
2023-04-18T10:48:22.184Z,0.6
2023-04-18T10:49:23.943Z,0.7
2023-04-18T10:50:06.242Z,0.3
2023-04-18T10:51:12.856Z,0.3
2023-04-18T10:52:03.757Z,0.7
2023-04-18T10:53:03.541Z,0.7
2023-04-18T10:54:04.301Z,0.4
2023-04-18T10:55:13.923Z,0.4
2023-04-18T10:56:03.262Z,0.2
2023-04-18T10:57:04.411Z,0.7
2023-04-18T10:58:03.644Z,0.9
2023-04-18T10:59:03.425Z,0.5
2023-04-18T11:00:04.386Z,0.6
2023-04-18T11:01:03.730Z,0.8
2023-04-18T11:02:14.339Z,1.0
2023-04-18T11:03:03.904Z,0.2
2023-04-18T11:04:08.269Z,0.1
2023-04-18T11:05:04.082Z,0.2
2023-04-18T11:06:03.055Z,0.4
2023-04-18T11:07:04.118Z,0.5
2023-04-18T11:08:03.648Z,0.8
2023-04-18T11:09:12.328Z,0.4
2023-04-18T11:10:03.847Z,0.4
2023-04-18T11:11:04.017Z,0.2
2023-04-18T11:12:05.249Z,0.9
2023-04-18T11:13:04.566Z,0.2
2023-04-18T11:14:03.259Z,0.3
2023-04-18T11:15:08.056Z,0.3
2023-04-18T11:16:03.847Z,0.9
2023-04-18T11:17:22.473Z,0.6
2023-04-18T11:18:03.776Z,1.3
2023-04-18T11:19:19.212Z,0.9
2023-04-18T11:20:06.895Z,0.4
2023-04-18T11:21:03.804Z,0.5
2023-04-18T11:22:03.529Z,0.3
2023-04-18T11:23:03.339Z,0.2
2023-04-18T11:24:03.664Z,0.8
2023-04-18T11:25:06.713Z,0.3
2023-04-18T11:26:04.871Z,0.6
2023-04-18T11:27:03.832Z,0.6
2023-04-18T11:28:03.545Z,0.8
2023-04-18T11:29:03.129Z,0.7
2023-04-18T11:30:04.212Z,0.5
2023-04-18T11:31:03.820Z,0.5
2023-04-18T11:32:06.726Z,0.9
2023-04-18T11:33:06.594Z,0.6
2023-04-18T11:34:03.002Z,0.8
2023-04-18T11:35:03.953Z,0.3
2023-04-18T11:36:03.910Z,0.3
2023-04-18T11:37:06.254Z,0.2
2023-04-18T11:38:04.127Z,0.2
2023-04-18T11:39:03.006Z,0.3
2023-04-18T11:40:04.128Z,0.5
2023-04-18T11:41:03.469Z,0.8
2023-04-18T11:42:03.363Z,0.3
2023-04-18T11:43:04.155Z,0.3
2023-04-18T11:44:05.228Z,0.4
2023-04-18T11:45:07.784Z,0.4
2023-04-18T11:46:03.405Z,0.2
2023-04-18T11:47:03.289Z,1.2
2023-04-18T11:48:03.035Z,0.5
2023-04-18T11:49:03.652Z,0.7
2023-04-18T11:50:05.028Z,0.8
2023-04-18T11:51:04.073Z,0.1
2023-04-18T11:52:08.031Z,0.4
2023-04-18T11:53:03.779Z,0.7
2023-04-18T11:54:03.750Z,0.6
2023-04-18T11:55:16.676Z,0.5
2023-04-18T11:56:03.664Z,0.5
2023-04-18T11:57:03.120Z,0.5
2023-04-18T11:58:03.730Z,0.7
2023-04-18T11:59:09.437Z,0.5
2023-04-18T12:00:03.859Z,0.4
2023-04-18T12:01:15.816Z,0.4
2023-04-18T12:02:15.485Z,0.0
2023-04-18T12:03:04.737Z,0.6
2023-04-18T12:04:04.529Z,0.6
2023-04-18T12:05:03.658Z,0.2
2023-04-18T12:06:03.509Z,0.4
2023-04-18T12:07:03.745Z,0.2
2023-04-18T12:08:10.201Z,0.5
2023-04-18T12:09:04.280Z,0.9
2023-04-18T12:10:07.558Z,1.0
2023-04-18T12:11:03.122Z,0.5
2023-04-18T12:12:03.776Z,0.7
2023-04-18T12:13:07.095Z,0.5
2023-04-18T12:14:04.106Z,0.4
2023-04-18T12:15:07.102Z,0.2
2023-04-18T12:16:03.081Z,0.2
2023-04-18T12:17:03.646Z,0.5
2023-04-18T12:18:04.142Z,0.4
2023-04-18T12:19:04.868Z,0.4
2023-04-18T12:20:04.441Z,0.6
2023-04-18T12:21:04.023Z,0.3
2023-04-18T12:22:03.642Z,0.3
2023-04-18T12:23:03.552Z,0.8
2023-04-18T12:24:13.041Z,0.4
2023-04-18T12:25:11.888Z,0.1
2023-04-18T12:26:04.748Z,0.7
2023-04-18T12:27:03.539Z,0.3
2023-04-18T12:28:08.328Z,0.6
2023-04-18T12:29:03.155Z,0.7
2023-04-18T12:30:03.236Z,0.5
2023-04-18T12:31:03.929Z,0.6
2023-04-18T12:32:03.676Z,0.1
2023-04-18T12:33:03.476Z,0.4
2023-04-18T12:34:03.079Z,0.1
2023-04-18T12:35:03.160Z,0.5
2023-04-18T12:36:03.774Z,0.4
2023-04-18T12:37:03.342Z,0.5
2023-04-18T12:38:03.817Z,0.1
2023-04-18T12:39:03.052Z,0.2
2023-04-18T12:40:04.148Z,0.6
2023-04-18T12:41:03.651Z,0.3
2023-04-18T12:42:03.441Z,0.0
2023-04-18T12:43:03.885Z,0.6
2023-04-18T12:44:03.509Z,0.5
2023-04-18T12:45:03.930Z,0.4
2023-04-18T12:46:03.490Z,0.4
2023-04-18T12:47:03.387Z,0.8
2023-04-18T12:48:03.246Z,0.4
2023-04-18T12:49:03.829Z,0.5
2023-04-18T12:50:03.823Z,0.4
2023-04-18T12:51:03.399Z,0.6
2023-04-18T12:52:03.239Z,0.4
2023-04-18T12:53:03.223Z,0.5
2023-04-18T12:54:03.733Z,0.6
2023-04-18T12:55:03.974Z,1.1
2023-04-18T12:56:03.576Z,0.4
2023-04-18T12:57:03.197Z,0.3
2023-04-18T12:58:02.964Z,0.6
2023-04-18T12:59:03.716Z,0.2
2023-04-18T13:00:04.698Z,0.2
2023-04-18T13:01:03.557Z,0.6
2023-04-18T13:02:03.247Z,0.5
2023-04-18T13:03:03.895Z,0.1
2023-04-18T13:04:12.364Z,0.4
2023-04-18T13:05:04.298Z,0.6
2023-04-18T13:06:03.175Z,0.1
2023-04-18T13:07:03.013Z,0.4
2023-04-18T13:09:03.612Z,0.4
2023-04-18T13:10:03.859Z,0.7
2023-04-18T13:11:03.237Z,0.6
2023-04-18T13:12:03.187Z,0.5
2023-04-18T13:13:03.647Z,0.4
2023-04-18T13:14:04.316Z,0.6
2023-04-18T13:15:03.901Z,0.4
2023-04-18T13:16:03.309Z,0.5
2023-04-18T13:17:03.937Z,0.7
2023-04-18T13:18:03.712Z,0.3
2023-04-18T13:19:03.464Z,0.5
2023-04-18T13:20:11.118Z,0.5
2023-04-18T13:21:03.335Z,0.5
2023-04-18T13:22:03.698Z,0.5
2023-04-18T13:23:03.502Z,0.6
2023-04-18T13:24:03.446Z,0.4
2023-04-18T13:25:03.397Z,0.2
2023-04-18T13:26:03.138Z,0.2
2023-04-18T13:27:03.728Z,0.2
2023-04-18T13:28:03.636Z,0.6
2023-04-18T13:29:03.808Z,0.7
2023-04-18T13:30:03.476Z,0.6
2023-04-18T13:31:03.950Z,0.2
2023-04-18T13:32:04.214Z,0.5
2023-04-18T13:33:03.611Z,0.6
2023-04-18T13:34:03.320Z,0.9
2023-04-18T13:35:03.277Z,0.0
2023-04-18T13:36:04.170Z,0.2
2023-04-18T13:37:03.628Z,0.2
2023-04-18T13:38:03.463Z,0.1
2023-04-18T13:39:03.595Z,0.4
2023-04-18T13:40:03.497Z,0.4
2023-04-18T13:41:12.389Z,0.7
2023-04-18T13:42:03.715Z,0.3
2023-04-18T13:43:03.364Z,0.4
2023-04-18T13:44:03.141Z,0.6
2023-04-18T13:45:04.310Z,0.6
2023-04-18T13:46:04.172Z,0.3
2023-04-18T13:47:04.310Z,0.6